sensor_id;sensor_type;location;lat;lon;timestamp;temperature;humidity
7920;DHT22;18778;47.610;9.776;2024-03-02T00:02:24;3.90;99.90
7920;DHT22;18778;47.610;9.776;2024-03-02T00:04:50;3.90;99.90
7920;DHT22;18778;47.610;9.776;2024-03-02T00:07:16;3.90;99.90
7920;DHT22;18778;47.610;9.776;2024-03-02T00:09:42;3.90;99.90
7920;DHT22;18778;47.610;9.776;2024-03-02T00:12:08;4.00;99.90
7920;DHT22;18778;47.610;9.776;2024-03-02T00:14:33;4.10;99.90
7920;DHT22;18778;47.610;9.776;2024-03-02T00:16:59;4.00;99.90
7920;DHT22;18778;47.610;9.776;2024-03-02T00:19:24;4.10;99.90
7920;DHT22;18778;47.610;9.776;2024-03-02T00:24:34;4.20;99.90
7920;DHT22;18778;47.610;9.776;2024-03-02T00:27:00;4.10;99.90
7920;DHT22;18778;47.610;9.776;2024-03-02T00:29:27;4.10;99.90
7920;DHT22;18778;47.610;9.776;2024-03-02T00:34:21;4.00;99.90
7920;DHT22;18778;47.610;9.776;2024-03-02T00:36:47;4.00;99.90
7920;DHT22;18778;47.610;9.776;2024-03-02T00:39:15;4.00;99.90
7920;DHT22;18778;47.610;9.776;2024-03-02T00:44:11;3.90;99.90
7920;DHT22;18778;47.610;9.776;2024-03-02T00:46:41;3.90;99.90
7920;DHT22;18778;47.610;9.776;2024-03-02T00:49:22;3.80;99.90
7920;DHT22;18778;47.610;9.776;2024-03-02T00:51:50;3.80;99.90
7920;DHT22;18778;47.610;9.776;2024-03-02T00:54:23;3.60;99.90
7920;DHT22;18778;47.610;9.776;2024-03-02T00:56:50;3.80;99.90
7920;DHT22;18778;47.610;9.776;2024-03-02T00:59:16;3.70;99.90
7920;DHT22;18778;47.610;9.776;2024-03-02T01:01:42;3.70;99.90
7920;DHT22;18778;47.610;9.776;2024-03-02T01:04:08;3.80;99.90
7920;DHT22;18778;47.610;9.776;2024-03-02T01:06:35;3.80;99.90
7920;DHT22;18778;47.610;9.776;2024-03-02T01:11:26;3.70;99.90
7920;DHT22;18778;47.610;9.776;2024-03-02T01:13:52;3.70;99.90
7920;DHT22;18778;47.610;9.776;2024-03-02T01:16:18;3.70;99.90
7920;DHT22;18778;47.610;9.776;2024-03-02T01:18:43;3.70;99.90
7920;DHT22;18778;47.610;9.776;2024-03-02T01:21:09;3.80;99.90
7920;DHT22;18778;47.610;9.776;2024-03-02T01:23:34;3.90;99.90
7920;DHT22;18778;47.610;9.776;2024-03-02T01:28:26;3.90;99.90
7920;DHT22;18778;47.610;9.776;2024-03-02T01:33:18;4.00;99.90
7920;DHT22;18778;47.610;9.776;2024-03-02T01:35:44;4.10;99.90
7920;DHT22;18778;47.610;9.776;2024-03-02T01:38:09;4.00;99.90
7920;DHT22;18778;47.610;9.776;2024-03-02T01:43:01;4.10;99.90
7920;DHT22;18778;47.610;9.776;2024-03-02T01:45:28;4.00;99.90
7920;DHT22;18778;47.610;9.776;2024-03-02T01:47:53;4.10;99.90
7920;DHT22;18778;47.610;9.776;2024-03-02T01:50:31;4.10;99.90
7920;DHT22;18778;47.610;9.776;2024-03-02T01:52:57;4.10;99.90
7920;DHT22;18778;47.610;9.776;2024-03-02T01:55:23;4.00;99.90
7920;DHT22;18778;47.610;9.776;2024-03-02T01:57:50;4.10;99.90
7920;DHT22;18778;47.610;9.776;2024-03-02T02:00:16;4.00;99.90
7920;DHT22;18778;47.610;9.776;2024-03-02T02:02:43;4.20;99.90
7920;DHT22;18778;47.610;9.776;2024-03-02T02:07:35;4.20;99.90
7920;DHT22;18778;47.610;9.776;2024-03-02T02:10:01;4.20;99.90
7920;DHT22;18778;47.610;9.776;2024-03-02T02:12:27;4.20;99.90
7920;DHT22;18778;47.610;9.776;2024-03-02T02:14:53;4.20;99.90
7920;DHT22;18778;47.610;9.776;2024-03-02T02:17:19;4.10;99.90
7920;DHT22;18778;47.610;9.776;2024-03-02T02:19:44;4.20;99.90
7920;DHT22;18778;47.610;9.776;2024-03-02T02:22:10;4.20;99.90
7920;DHT22;18778;47.610;9.776;2024-03-02T02:24:42;4.20;99.90
7920;DHT22;18778;47.610;9.776;2024-03-02T02:27:08;4.20;99.90
7920;DHT22;18778;47.610;9.776;2024-03-02T02:29:35;4.20;99.90
7920;DHT22;18778;47.610;9.776;2024-03-02T02:32:00;4.20;99.90
7920;DHT22;18778;47.610;9.776;2024-03-02T02:34:26;4.20;99.90
7920;DHT22;18778;47.610;9.776;2024-03-02T02:36:52;4.10;99.90
7920;DHT22;18778;47.610;9.776;2024-03-02T02:39:21;4.10;99.90
7920;DHT22;18778;47.610;9.776;2024-03-02T02:41:48;4.10;99.90
7920;DHT22;18778;47.610;9.776;2024-03-02T02:44:13;4.10;99.90
7920;DHT22;18778;47.610;9.776;2024-03-02T02:46:39;4.00;99.90
7920;DHT22;18778;47.610;9.776;2024-03-02T02:49:05;3.90;99.90
7920;DHT22;18778;47.610;9.776;2024-03-02T02:53:57;3.90;99.90
7920;DHT22;18778;47.610;9.776;2024-03-02T02:56:23;3.80;99.90
7920;DHT22;18778;47.610;9.776;2024-03-02T02:58:48;3.80;99.90
7920;DHT22;18778;47.610;9.776;2024-03-02T03:01:15;3.90;99.90
7920;DHT22;18778;47.610;9.776;2024-03-02T03:03:43;3.70;99.90
7920;DHT22;18778;47.610;9.776;2024-03-02T03:06:09;3.80;99.90
7920;DHT22;18778;47.610;9.776;2024-03-02T03:08:35;4.00;99.90
7920;DHT22;18778;47.610;9.776;2024-03-02T03:13:26;4.00;99.90
7920;DHT22;18778;47.610;9.776;2024-03-02T03:15:52;4.00;99.90
7920;DHT22;18778;47.610;9.776;2024-03-02T03:18:18;4.00;99.90
7920;DHT22;18778;47.610;9.776;2024-03-02T03:20:44;4.00;99.90
7920;DHT22;18778;47.610;9.776;2024-03-02T03:23:10;4.00;99.90
7920;DHT22;18778;47.610;9.776;2024-03-02T03:28:06;4.10;99.90
7920;DHT22;18778;47.610;9.776;2024-03-02T03:32:58;4.20;99.90
7920;DHT22;18778;47.610;9.776;2024-03-02T03:35:23;4.20;99.90
7920;DHT22;18778;47.610;9.776;2024-03-02T03:37:49;4.30;99.90
7920;DHT22;18778;47.610;9.776;2024-03-02T03:40:14;4.30;99.90
7920;DHT22;18778;47.610;9.776;2024-03-02T03:45:06;4.30;99.90
7920;DHT22;18778;47.610;9.776;2024-03-02T03:47:32;4.30;99.90
7920;DHT22;18778;47.610;9.776;2024-03-02T03:49:58;4.20;99.90
7920;DHT22;18778;47.610;9.776;2024-03-02T03:52:24;4.20;99.90
7920;DHT22;18778;47.610;9.776;2024-03-02T03:54:50;4.10;99.90
7920;DHT22;18778;47.610;9.776;2024-03-02T03:57:16;4.10;99.90
7920;DHT22;18778;47.610;9.776;2024-03-02T03:59:41;4.10;99.90
7920;DHT22;18778;47.610;9.776;2024-03-02T04:02:08;4.10;99.90
7920;DHT22;18778;47.610;9.776;2024-03-02T04:09:25;4.00;99.90
7920;DHT22;18778;47.610;9.776;2024-03-02T04:14:17;3.90;99.90
7920;DHT22;18778;47.610;9.776;2024-03-02T04:16:43;3.90;99.90
7920;DHT22;18778;47.610;9.776;2024-03-02T04:19:08;3.90;99.90
7920;DHT22;18778;47.610;9.776;2024-03-02T04:21:34;3.90;99.90
7920;DHT22;18778;47.610;9.776;2024-03-02T04:23:59;3.90;99.90
7920;DHT22;18778;47.610;9.776;2024-03-02T04:26:28;3.80;99.90
7920;DHT22;18778;47.610;9.776;2024-03-02T04:31:20;3.80;99.90
7920;DHT22;18778;47.610;9.776;2024-03-02T04:33:46;3.80;99.90
7920;DHT22;18778;47.610;9.776;2024-03-02T04:36:11;3.80;99.90
7920;DHT22;18778;47.610;9.776;2024-03-02T04:38:38;3.80;99.90
7920;DHT22;18778;47.610;9.776;2024-03-02T04:41:04;3.60;99.90
7920;DHT22;18778;47.610;9.776;2024-03-02T04:46:00;3.90;99.90
7920;DHT22;18778;47.610;9.776;2024-03-02T04:48:25;3.80;99.90
7920;DHT22;18778;47.610;9.776;2024-03-02T04:50:51;3.90;99.90
7920;DHT22;18778;47.610;9.776;2024-03-02T04:55:42;3.90;99.90
7920;DHT22;18778;47.610;9.776;2024-03-02T04:58:08;3.90;99.90
7920;DHT22;18778;47.610;9.776;2024-03-02T05:05:26;3.80;99.90
7920;DHT22;18778;47.610;9.776;2024-03-02T05:07:52;3.80;99.90
7920;DHT22;18778;47.610;9.776;2024-03-02T05:10:17;3.90;99.90
7920;DHT22;18778;47.610;9.776;2024-03-02T05:12:43;3.90;99.90
7920;DHT22;18778;47.610;9.776;2024-03-02T05:15:13;3.80;99.90
7920;DHT22;18778;47.610;9.776;2024-03-02T05:17:39;3.70;99.90
7920;DHT22;18778;47.610;9.776;2024-03-02T05:20:08;3.70;99.90
7920;DHT22;18778;47.610;9.776;2024-03-02T05:22:34;3.70;99.90
7920;DHT22;18778;47.610;9.776;2024-03-02T05:25:04;3.70;99.90
7920;DHT22;18778;47.610;9.776;2024-03-02T05:27:30;3.70;99.90
7920;DHT22;18778;47.610;9.776;2024-03-02T05:29:55;3.70;99.90
7920;DHT22;18778;47.610;9.776;2024-03-02T05:32:21;3.70;99.90
7920;DHT22;18778;47.610;9.776;2024-03-02T05:34:46;3.70;99.90
7920;DHT22;18778;47.610;9.776;2024-03-02T05:37:12;3.60;99.90
7920;DHT22;18778;47.610;9.776;2024-03-02T05:39:38;3.70;99.90
7920;DHT22;18778;47.610;9.776;2024-03-02T05:42:03;3.70;99.90
7920;DHT22;18778;47.610;9.776;2024-03-02T05:44:29;3.70;99.90
7920;DHT22;18778;47.610;9.776;2024-03-02T05:49:21;3.70;99.90
7920;DHT22;18778;47.610;9.776;2024-03-02T05:54:13;3.70;99.90
7920;DHT22;18778;47.610;9.776;2024-03-02T05:56:39;3.70;99.90
7920;DHT22;18778;47.610;9.776;2024-03-02T05:59:04;3.70;99.90
7920;DHT22;18778;47.610;9.776;2024-03-02T06:01:39;3.70;99.90
7920;DHT22;18778;47.610;9.776;2024-03-02T06:04:06;3.70;99.90
7920;DHT22;18778;47.610;9.776;2024-03-02T06:06:31;3.70;99.90
7920;DHT22;18778;47.610;9.776;2024-03-02T06:09:03;3.80;99.90
7920;DHT22;18778;47.610;9.776;2024-03-02T06:11:36;3.80;99.90
7920;DHT22;18778;47.610;9.776;2024-03-02T06:14:06;3.70;99.90
7920;DHT22;18778;47.610;9.776;2024-03-02T06:16:32;3.70;99.90
7920;DHT22;18778;47.610;9.776;2024-03-02T06:18:58;3.70;99.90
7920;DHT22;18778;47.610;9.776;2024-03-02T06:21:24;3.70;99.90
7920;DHT22;18778;47.610;9.776;2024-03-02T06:23:50;3.70;99.90
7920;DHT22;18778;47.610;9.776;2024-03-02T06:26:16;3.60;99.90
7920;DHT22;18778;47.610;9.776;2024-03-02T06:33:34;3.60;99.90
7920;DHT22;18778;47.610;9.776;2024-03-02T06:38:26;3.50;99.90
7920;DHT22;18778;47.610;9.776;2024-03-02T06:45:43;3.60;99.90
7920;DHT22;18778;47.610;9.776;2024-03-02T06:48:09;3.60;99.90
7920;DHT22;18778;47.610;9.776;2024-03-02T06:50:34;3.70;99.90
7920;DHT22;18778;47.610;9.776;2024-03-02T06:53:00;3.70;99.90
7920;DHT22;18778;47.610;9.776;2024-03-02T06:55:26;3.70;99.90
7920;DHT22;18778;47.610;9.776;2024-03-02T07:00:18;3.90;99.90
7920;DHT22;18778;47.610;9.776;2024-03-02T07:02:45;4.00;99.90
7920;DHT22;18778;47.610;9.776;2024-03-02T07:10:04;4.00;99.90
7920;DHT22;18778;47.610;9.776;2024-03-02T07:14:57;4.10;99.90
7920;DHT22;18778;47.610;9.776;2024-03-02T07:19:55;4.30;99.90
7920;DHT22;18778;47.610;9.776;2024-03-02T07:22:20;4.50;99.90
7920;DHT22;18778;47.610;9.776;2024-03-02T07:29:41;4.60;99.90
7920;DHT22;18778;47.610;9.776;2024-03-02T07:32:08;4.60;99.90
7920;DHT22;18778;47.610;9.776;2024-03-02T07:34:34;4.80;99.90
7920;DHT22;18778;47.610;9.776;2024-03-02T07:36:59;4.80;99.90
7920;DHT22;18778;47.610;9.776;2024-03-02T07:39:25;5.00;99.90
7920;DHT22;18778;47.610;9.776;2024-03-02T07:41:51;5.10;99.90
7920;DHT22;18778;47.610;9.776;2024-03-02T07:44:17;5.20;99.90
7920;DHT22;18778;47.610;9.776;2024-03-02T07:46:45;5.40;99.90
7920;DHT22;18778;47.610;9.776;2024-03-02T07:51:39;5.80;99.90
7920;DHT22;18778;47.610;9.776;2024-03-02T07:54:04;5.80;99.90
7920;DHT22;18778;47.610;9.776;2024-03-02T07:58:56;6.20;99.90
7920;DHT22;18778;47.610;9.776;2024-03-02T08:03:52;6.60;99.90
7920;DHT22;18778;47.610;9.776;2024-03-02T08:08:46;6.90;99.90
7920;DHT22;18778;47.610;9.776;2024-03-02T08:11:11;6.90;99.90
7920;DHT22;18778;47.610;9.776;2024-03-02T08:13:38;7.00;99.90
7920;DHT22;18778;47.610;9.776;2024-03-02T08:16:04;7.00;99.90
7920;DHT22;18778;47.610;9.776;2024-03-02T08:18:32;7.40;99.90
7920;DHT22;18778;47.610;9.776;2024-03-02T08:20:57;7.50;99.90
7920;DHT22;18778;47.610;9.776;2024-03-02T08:23:23;7.50;99.90
7920;DHT22;18778;47.610;9.776;2024-03-02T08:25:49;7.60;99.90
7920;DHT22;18778;47.610;9.776;2024-03-02T08:28:14;7.80;99.90
7920;DHT22;18778;47.610;9.776;2024-03-02T08:30:40;7.80;99.90
7920;DHT22;18778;47.610;9.776;2024-03-02T08:33:05;8.20;99.90
7920;DHT22;18778;47.610;9.776;2024-03-02T08:35:31;8.20;99.90
7920;DHT22;18778;47.610;9.776;2024-03-02T08:38:01;8.10;99.90
7920;DHT22;18778;47.610;9.776;2024-03-02T08:40:27;8.30;99.90
7920;DHT22;18778;47.610;9.776;2024-03-02T08:42:52;8.20;99.90
7920;DHT22;18778;47.610;9.776;2024-03-02T08:45:20;8.60;99.90
7920;DHT22;18778;47.610;9.776;2024-03-02T08:47:48;8.90;99.90
7920;DHT22;18778;47.610;9.776;2024-03-02T08:50:14;8.90;99.90
7920;DHT22;18778;47.610;9.776;2024-03-02T08:52:39;9.00;99.90
7920;DHT22;18778;47.610;9.776;2024-03-02T08:55:06;8.90;99.90
7920;DHT22;18778;47.610;9.776;2024-03-02T08:57:32;9.00;99.90
7920;DHT22;18778;47.610;9.776;2024-03-02T08:59:58;8.90;99.90
7920;DHT22;18778;47.610;9.776;2024-03-02T09:02:24;9.00;99.90
7920;DHT22;18778;47.610;9.776;2024-03-02T09:04:50;8.70;99.90
7920;DHT22;18778;47.610;9.776;2024-03-02T09:07:15;8.80;99.90
7920;DHT22;18778;47.610;9.776;2024-03-02T09:09:41;8.70;99.90
7920;DHT22;18778;47.610;9.776;2024-03-02T09:12:07;8.60;99.90
7920;DHT22;18778;47.610;9.776;2024-03-02T09:14:33;8.50;99.90
7920;DHT22;18778;47.610;9.776;2024-03-02T09:16:58;8.30;99.90
7920;DHT22;18778;47.610;9.776;2024-03-02T09:19:24;8.20;99.90
7920;DHT22;18778;47.610;9.776;2024-03-02T09:21:49;8.10;99.90
7920;DHT22;18778;47.610;9.776;2024-03-02T09:24:15;8.00;99.90
7920;DHT22;18778;47.610;9.776;2024-03-02T09:26:41;11.70;99.90
7920;DHT22;18778;47.610;9.776;2024-03-02T09:29:06;8.20;99.90
7920;DHT22;18778;47.610;9.776;2024-03-02T09:31:32;8.20;99.90
7920;DHT22;18778;47.610;9.776;2024-03-02T09:33:57;8.50;99.90
7920;DHT22;18778;47.610;9.776;2024-03-02T09:36:23;9.00;99.90
7920;DHT22;18778;47.610;9.776;2024-03-02T09:38:49;8.80;99.90
7920;DHT22;18778;47.610;9.776;2024-03-02T09:41:15;9.00;99.90
7920;DHT22;18778;47.610;9.776;2024-03-02T09:43:41;9.30;99.90
7920;DHT22;18778;47.610;9.776;2024-03-02T09:46:09;9.90;99.90
7920;DHT22;18778;47.610;9.776;2024-03-02T09:48:35;9.60;99.90
7920;DHT22;18778;47.610;9.776;2024-03-02T09:51:01;9.60;99.90
7920;DHT22;18778;47.610;9.776;2024-03-02T09:53:32;9.80;99.90
7920;DHT22;18778;47.610;9.776;2024-03-02T09:55:59;10.00;99.90
7920;DHT22;18778;47.610;9.776;2024-03-02T10:03:18;10.80;99.90
7920;DHT22;18778;47.610;9.776;2024-03-02T10:05:44;10.90;99.90
7920;DHT22;18778;47.610;9.776;2024-03-02T10:08:09;10.60;99.90
7920;DHT22;18778;47.610;9.776;2024-03-02T10:10:40;10.90;99.90
7920;DHT22;18778;47.610;9.776;2024-03-02T10:13:10;11.00;99.90
7920;DHT22;18778;47.610;9.776;2024-03-02T10:15:37;11.40;99.90
7920;DHT22;18778;47.610;9.776;2024-03-02T10:18:11;14.30;99.90
7920;DHT22;18778;47.610;9.776;2024-03-02T10:20:41;12.80;99.90
7920;DHT22;18778;47.610;9.776;2024-03-02T10:23:14;12.80;99.90
7920;DHT22;18778;47.610;9.776;2024-03-02T10:25:40;13.40;99.90
7920;DHT22;18778;47.610;9.776;2024-03-02T10:28:06;13.50;99.90
7920;DHT22;18778;47.610;9.776;2024-03-02T10:30:33;14.00;99.90
7920;DHT22;18778;47.610;9.776;2024-03-02T10:33:00;14.70;99.90
7920;DHT22;18778;47.610;9.776;2024-03-02T10:35:26;15.20;99.90
7920;DHT22;18778;47.610;9.776;2024-03-02T10:37:55;14.70;99.90
7920;DHT22;18778;47.610;9.776;2024-03-02T10:40:23;14.80;99.90
7920;DHT22;18778;47.610;9.776;2024-03-02T10:42:52;15.20;99.90
7920;DHT22;18778;47.610;9.776;2024-03-02T10:45:20;17.00;99.90
7920;DHT22;18778;47.610;9.776;2024-03-02T10:47:47;15.80;99.90
7920;DHT22;18778;47.610;9.776;2024-03-02T10:50:13;15.40;99.90
7920;DHT22;18778;47.610;9.776;2024-03-02T10:52:39;16.00;99.90
7920;DHT22;18778;47.610;9.776;2024-03-02T10:55:06;16.00;99.90
7920;DHT22;18778;47.610;9.776;2024-03-02T10:57:53;16.00;99.90
7920;DHT22;18778;47.610;9.776;2024-03-02T11:00:20;15.80;99.90
7920;DHT22;18778;47.610;9.776;2024-03-02T11:02:56;15.90;99.90
7920;DHT22;18778;47.610;9.776;2024-03-02T11:05:31;19.10;99.90
7920;DHT22;18778;47.610;9.776;2024-03-02T11:08:00;16.10;99.90
7920;DHT22;18778;47.610;9.776;2024-03-02T11:10:36;16.30;99.90
7920;DHT22;18778;47.610;9.776;2024-03-02T11:13:05;16.30;99.90
7920;DHT22;18778;47.610;9.776;2024-03-02T11:15:35;19.30;99.90
7920;DHT22;18778;47.610;9.776;2024-03-02T11:18:04;16.10;99.90
7920;DHT22;18778;47.610;9.776;2024-03-02T11:20:35;16.00;99.90
7920;DHT22;18778;47.610;9.776;2024-03-02T11:23:08;15.80;99.90
7920;DHT22;18778;47.610;9.776;2024-03-02T11:25:34;15.80;99.90
7920;DHT22;18778;47.610;9.776;2024-03-02T11:28:04;16.90;99.90
7920;DHT22;18778;47.610;9.776;2024-03-02T11:33:05;15.60;99.90
7920;DHT22;18778;47.610;9.776;2024-03-02T11:35:35;15.60;99.90
7920;DHT22;18778;47.610;9.776;2024-03-02T11:38:01;15.60;99.90
7920;DHT22;18778;47.610;9.776;2024-03-02T11:40:29;16.40;99.90
7920;DHT22;18778;47.610;9.776;2024-03-02T11:42:55;15.30;99.90
7920;DHT22;18778;47.610;9.776;2024-03-02T11:45:25;15.20;99.90
7920;DHT22;18778;47.610;9.776;2024-03-02T11:47:55;14.90;99.90
7920;DHT22;18778;47.610;9.776;2024-03-02T11:50:30;15.00;99.90
7920;DHT22;18778;47.610;9.776;2024-03-02T11:52:58;14.70;99.90
7920;DHT22;18778;47.610;9.776;2024-03-02T11:55:25;15.00;99.90
7920;DHT22;18778;47.610;9.776;2024-03-02T11:57:52;17.20;99.90
7920;DHT22;18778;47.610;9.776;2024-03-02T12:00:19;15.40;99.90
7920;DHT22;18778;47.610;9.776;2024-03-02T12:03:03;15.70;99.90
7920;DHT22;18778;47.610;9.776;2024-03-02T12:05:30;16.10;99.90
7920;DHT22;18778;47.610;9.776;2024-03-02T12:08:03;16.50;99.90
7920;DHT22;18778;47.610;9.776;2024-03-02T12:10:30;17.00;99.90
7920;DHT22;18778;47.610;9.776;2024-03-02T12:12:59;17.40;99.90
7920;DHT22;18778;47.610;9.776;2024-03-02T12:15:30;17.30;99.90
7920;DHT22;18778;47.610;9.776;2024-03-02T12:17:57;18.00;99.90
7920;DHT22;18778;47.610;9.776;2024-03-02T12:20:24;18.30;99.90
7920;DHT22;18778;47.610;9.776;2024-03-02T12:22:51;18.40;98.60
7920;DHT22;18778;47.610;9.776;2024-03-02T12:25:21;18.20;99.90
7920;DHT22;18778;47.610;9.776;2024-03-02T12:27:49;17.60;99.90
7920;DHT22;18778;47.610;9.776;2024-03-02T12:30:17;17.40;99.90
7920;DHT22;18778;47.610;9.776;2024-03-02T12:32:42;17.80;99.90
7920;DHT22;18778;47.610;9.776;2024-03-02T12:35:10;17.30;99.90
7920;DHT22;18778;47.610;9.776;2024-03-02T12:37:46;17.50;99.90
7920;DHT22;18778;47.610;9.776;2024-03-02T12:40:12;18.00;99.90
7920;DHT22;18778;47.610;9.776;2024-03-02T12:42:39;17.10;99.90
7920;DHT22;18778;47.610;9.776;2024-03-02T12:45:06;16.90;99.90
7920;DHT22;18778;47.610;9.776;2024-03-02T12:47:32;16.80;99.90
7920;DHT22;18778;47.610;9.776;2024-03-02T12:49:59;18.70;99.90
7920;DHT22;18778;47.610;9.776;2024-03-02T12:52:24;15.40;99.90
7920;DHT22;18778;47.610;9.776;2024-03-02T12:54:50;14.50;99.90
7920;DHT22;18778;47.610;9.776;2024-03-02T12:57:19;14.50;99.90
7920;DHT22;18778;47.610;9.776;2024-03-02T12:59:47;14.30;99.90
7920;DHT22;18778;47.610;9.776;2024-03-02T13:02:19;16.00;99.90
7920;DHT22;18778;47.610;9.776;2024-03-02T13:04:52;15.20;99.90
7920;DHT22;18778;47.610;9.776;2024-03-02T13:07:19;13.90;99.90
7920;DHT22;18778;47.610;9.776;2024-03-02T13:09:45;13.90;99.90
7920;DHT22;18778;47.610;9.776;2024-03-02T13:12:11;13.70;99.90
7920;DHT22;18778;47.610;9.776;2024-03-02T13:14:37;15.90;99.90
7920;DHT22;18778;47.610;9.776;2024-03-02T13:17:03;13.30;99.90
7920;DHT22;18778;47.610;9.776;2024-03-02T13:19:30;13.20;99.90
7920;DHT22;18778;47.610;9.776;2024-03-02T13:21:56;14.00;99.90
7920;DHT22;18778;47.610;9.776;2024-03-02T13:24:22;13.30;99.90
7920;DHT22;18778;47.610;9.776;2024-03-02T13:26:51;13.40;99.90
7920;DHT22;18778;47.610;9.776;2024-03-02T13:29:21;13.30;99.90
7920;DHT22;18778;47.610;9.776;2024-03-02T13:31:46;13.30;99.90
7920;DHT22;18778;47.610;9.776;2024-03-02T13:34:12;13.40;99.90
7920;DHT22;18778;47.610;9.776;2024-03-02T13:36:37;13.60;99.90
7920;DHT22;18778;47.610;9.776;2024-03-02T13:39:04;13.80;99.90
7920;DHT22;18778;47.610;9.776;2024-03-02T13:44:01;13.90;99.90
7920;DHT22;18778;47.610;9.776;2024-03-02T13:46:27;13.90;99.90
7920;DHT22;18778;47.610;9.776;2024-03-02T13:48:54;13.80;99.90
7920;DHT22;18778;47.610;9.776;2024-03-02T13:51:20;13.80;99.90
7920;DHT22;18778;47.610;9.776;2024-03-02T13:53:45;13.90;99.90
7920;DHT22;18778;47.610;9.776;2024-03-02T13:58:37;14.20;99.90
7920;DHT22;18778;47.610;9.776;2024-03-02T14:01:04;14.00;99.90
7920;DHT22;18778;47.610;9.776;2024-03-02T14:03:30;13.90;99.90
7920;DHT22;18778;47.610;9.776;2024-03-02T14:05:56;15.70;99.90
7920;DHT22;18778;47.610;9.776;2024-03-02T14:08:21;16.30;99.90
7920;DHT22;18778;47.610;9.776;2024-03-02T14:10:47;15.60;99.90
7920;DHT22;18778;47.610;9.776;2024-03-02T14:13:13;16.10;99.90
7920;DHT22;18778;47.610;9.776;2024-03-02T14:15:38;15.90;99.90
7920;DHT22;18778;47.610;9.776;2024-03-02T14:18:05;16.20;99.90
7920;DHT22;18778;47.610;9.776;2024-03-02T14:20:31;16.40;99.90
7920;DHT22;18778;47.610;9.776;2024-03-02T14:22:58;17.80;99.90
7920;DHT22;18778;47.610;9.776;2024-03-02T14:25:25;17.20;99.90
7920;DHT22;18778;47.610;9.776;2024-03-02T14:27:50;19.90;99.90
7920;DHT22;18778;47.610;9.776;2024-03-02T14:30:16;22.20;99.90
7920;DHT22;18778;47.610;9.776;2024-03-02T14:32:42;20.60;99.90
7920;DHT22;18778;47.610;9.776;2024-03-02T14:35:08;21.00;99.90
7920;DHT22;18778;47.610;9.776;2024-03-02T14:37:37;21.00;99.90
7920;DHT22;18778;47.610;9.776;2024-03-02T14:40:02;24.50;99.90
7920;DHT22;18778;47.610;9.776;2024-03-02T14:42:31;21.30;99.90
7920;DHT22;18778;47.610;9.776;2024-03-02T14:44:57;21.50;99.90
7920;DHT22;18778;47.610;9.776;2024-03-02T14:47:23;21.00;99.90
7920;DHT22;18778;47.610;9.776;2024-03-02T14:49:50;22.00;99.90
7920;DHT22;18778;47.610;9.776;2024-03-02T14:52:15;20.90;99.90
7920;DHT22;18778;47.610;9.776;2024-03-02T14:54:42;21.40;99.90
7920;DHT22;18778;47.610;9.776;2024-03-02T14:57:08;20.20;99.90
7920;DHT22;18778;47.610;9.776;2024-03-02T14:59:34;20.50;99.90
7920;DHT22;18778;47.610;9.776;2024-03-02T15:01:59;20.10;99.90
7920;DHT22;18778;47.610;9.776;2024-03-02T15:09:18;19.20;99.90
7920;DHT22;18778;47.610;9.776;2024-03-02T15:11:45;18.80;99.90
7920;DHT22;18778;47.610;9.776;2024-03-02T15:14:11;18.50;99.90
7920;DHT22;18778;47.610;9.776;2024-03-02T15:23:54;17.40;99.90
7920;DHT22;18778;47.610;9.776;2024-03-02T15:26:20;17.10;99.90
7920;DHT22;18778;47.610;9.776;2024-03-02T15:28:46;17.00;99.90
7920;DHT22;18778;47.610;9.776;2024-03-02T15:33:37;16.60;99.90
7920;DHT22;18778;47.610;9.776;2024-03-02T15:36:03;16.10;99.90
7920;DHT22;18778;47.610;9.776;2024-03-02T15:38:30;15.90;99.90
7920;DHT22;18778;47.610;9.776;2024-03-02T15:40:55;17.40;99.90
7920;DHT22;18778;47.610;9.776;2024-03-02T15:43:21;17.70;99.90
7920;DHT22;18778;47.610;9.776;2024-03-02T15:45:47;15.30;99.90
7920;DHT22;18778;47.610;9.776;2024-03-02T15:48:12;14.90;99.90
7920;DHT22;18778;47.610;9.776;2024-03-02T15:50:38;14.80;99.90
7920;DHT22;18778;47.610;9.776;2024-03-02T15:53:03;15.30;99.90
7920;DHT22;18778;47.610;9.776;2024-03-02T15:55:32;14.30;99.90
7920;DHT22;18778;47.610;9.776;2024-03-02T15:57:58;17.40;99.90
7920;DHT22;18778;47.610;9.776;2024-03-02T16:00:24;14.10;99.90
7920;DHT22;18778;47.610;9.776;2024-03-02T16:07:42;13.80;99.90
7920;DHT22;18778;47.610;9.776;2024-03-02T16:10:08;13.70;99.90
7920;DHT22;18778;47.610;9.776;2024-03-02T16:12:34;13.60;99.90
7920;DHT22;18778;47.610;9.776;2024-03-02T16:14:59;13.50;99.90
7920;DHT22;18778;47.610;9.776;2024-03-02T16:17:25;13.50;99.90
7920;DHT22;18778;47.610;9.776;2024-03-02T16:19:50;13.40;99.90
7920;DHT22;18778;47.610;9.776;2024-03-02T16:24:42;13.30;99.90
7920;DHT22;18778;47.610;9.776;2024-03-02T16:29:34;13.20;99.90
7920;DHT22;18778;47.610;9.776;2024-03-02T16:31:59;13.00;99.90
7920;DHT22;18778;47.610;9.776;2024-03-02T16:36:52;12.70;99.90
7920;DHT22;18778;47.610;9.776;2024-03-02T16:39:30;12.40;99.90
7920;DHT22;18778;47.610;9.776;2024-03-02T16:44:21;12.30;99.90
7920;DHT22;18778;47.610;9.776;2024-03-02T16:46:47;12.10;99.90
7920;DHT22;18778;47.610;9.776;2024-03-02T16:49:13;11.70;99.90
7920;DHT22;18778;47.610;9.776;2024-03-02T16:51:40;11.50;99.90
7920;DHT22;18778;47.610;9.776;2024-03-02T16:56:42;11.40;99.90
7920;DHT22;18778;47.610;9.776;2024-03-02T16:59:08;11.30;99.90
7920;DHT22;18778;47.610;9.776;2024-03-02T17:01:33;11.10;99.90
7920;DHT22;18778;47.610;9.776;2024-03-02T17:06:26;10.90;99.90
7920;DHT22;18778;47.610;9.776;2024-03-02T17:08:51;10.80;99.90
7920;DHT22;18778;47.610;9.776;2024-03-02T17:11:17;10.50;99.90
7920;DHT22;18778;47.610;9.776;2024-03-02T17:13:43;10.10;99.90
7920;DHT22;18778;47.610;9.776;2024-03-02T17:16:11;9.90;99.90
7920;DHT22;18778;47.610;9.776;2024-03-02T17:18:36;9.90;99.90
7920;DHT22;18778;47.610;9.776;2024-03-02T17:21:03;9.70;99.90
7920;DHT22;18778;47.610;9.776;2024-03-02T17:23:28;9.60;99.90
7920;DHT22;18778;47.610;9.776;2024-03-02T17:25:56;9.40;99.90
7920;DHT22;18778;47.610;9.776;2024-03-02T17:28:23;9.60;99.90
7920;DHT22;18778;47.610;9.776;2024-03-02T17:33:16;9.40;99.90
7920;DHT22;18778;47.610;9.776;2024-03-02T17:38:11;9.00;99.90
7920;DHT22;18778;47.610;9.776;2024-03-02T17:40:37;9.00;99.90
7920;DHT22;18778;47.610;9.776;2024-03-02T17:43:02;8.80;99.90
7920;DHT22;18778;47.610;9.776;2024-03-02T17:45:29;8.80;99.90
7920;DHT22;18778;47.610;9.776;2024-03-02T17:47:54;8.60;99.90
7920;DHT22;18778;47.610;9.776;2024-03-02T17:50:20;8.50;99.90
7920;DHT22;18778;47.610;9.776;2024-03-02T17:55:13;8.40;99.90
7920;DHT22;18778;47.610;9.776;2024-03-02T18:00:05;8.40;99.90
7920;DHT22;18778;47.610;9.776;2024-03-02T18:02:31;8.20;99.90
7920;DHT22;18778;47.610;9.776;2024-03-02T18:04:59;8.20;99.90
7920;DHT22;18778;47.610;9.776;2024-03-02T18:09:50;8.20;99.90
7920;DHT22;18778;47.610;9.776;2024-03-02T18:14:42;8.00;99.90
7920;DHT22;18778;47.610;9.776;2024-03-02T18:17:08;8.00;99.90
7920;DHT22;18778;47.610;9.776;2024-03-02T18:19:33;8.10;99.90
7920;DHT22;18778;47.610;9.776;2024-03-02T18:21:59;8.10;99.90
7920;DHT22;18778;47.610;9.776;2024-03-02T18:24:24;8.20;99.90
7920;DHT22;18778;47.610;9.776;2024-03-02T18:26:53;8.20;99.90
7920;DHT22;18778;47.610;9.776;2024-03-02T18:29:19;7.90;99.90